Time;durP1;ratioP1;P1;durP2;ratioP2;P2;SDS_P1;SDS_P2;PMS_P1;PMS_P2;Temp;Humidity;BMP_temperature;BMP_pressure;BME280_temperature;BME280_humidity;BME280_pressure;Samples;Min_cycle;Max_cycle;Signal;HPM_P1;HPM_P2
2023/05/07 00:01:42;;;;;;;11.75;4.45;;;;;;;0.53;58.70;100876.09;5096418;28;20409;-60
2023/05/07 00:04:08;;;;;;;5.75;4.18;;;;;;;0.53;59.05;100878.75;5096840;28;20035;-61
2023/05/07 00:06:34;;;;;;;6.32;3.85;;;;;;;0.51;58.59;100885.81;5078801;28;20044;-60
2023/05/07 00:09:00;;;;;;;5.93;4.30;;;;;;;0.49;59.17;100882.34;5096504;28;20040;-60
2023/05/07 00:11:27;;;;;;;6.35;4.00;;;;;;;0.41;59.04;100877.22;5096511;28;20032;-60
2023/05/07 00:13:52;;;;;;;8.88;4.32;;;;;;;0.47;59.11;100881.47;5096426;28;20032;-59
2023/05/07 00:16:18;;;;;;;7.03;3.95;;;;;;;0.45;58.83;100886.81;5096536;28;20028;-62
2023/05/07 00:18:44;;;;;;;7.68;4.18;;;;;;;0.36;59.08;100864.16;5096229;28;20024;-60
2023/05/07 00:21:09;;;;;;;10.20;4.05;;;;;;;0.36;59.33;100872.06;5096046;28;20031;-63
2023/05/07 00:23:34;;;;;;;6.57;4.30;;;;;;;0.38;59.23;100886.06;5096722;28;20028;-60
2023/05/07 00:26:00;;;;;;;6.63;4.00;;;;;;;0.36;59.25;100881.72;5078429;28;20028;-61
2023/05/07 00:28:25;;;;;;;6.18;4.13;;;;;;;0.36;59.82;100885.22;5078234;28;20035;-60
2023/05/07 00:30:51;;;;;;;7.82;4.45;;;;;;;0.35;59.81;100888.75;5096548;28;20035;-57
2023/05/07 00:33:17;;;;;;;7.88;4.10;;;;;;;0.34;60.02;100891.41;5096403;28;20032;-58
2023/05/07 00:35:43;;;;;;;8.30;4.20;;;;;;;0.31;59.28;100897.63;5095911;28;20050;-59
2023/05/07 00:38:08;;;;;;;8.23;3.83;;;;;;;0.32;59.74;100893.22;5096163;28;20418;-61
2023/05/07 00:40:34;;;;;;;6.13;4.20;;;;;;;0.31;59.49;100900.28;5096189;28;20063;-59
2023/05/07 00:43:00;;;;;;;11.38;4.32;;;;;;;0.11;59.78;100863.78;5095888;28;20893;-59
2023/05/07 00:45:29;;;;;;;8.02;4.30;;;;;;;0.26;59.69;100894.22;5095626;28;20060;-58
2023/05/07 00:48:02;;;;;;;6.18;3.85;;;;;;;0.29;60.09;100899.44;5095999;28;20032;-60
2023/05/07 00:50:28;;;;;;;5.35;4.40;;;;;;;0.23;59.82;100892.53;5096046;28;20029;-57
2023/05/07 00:52:54;;;;;;;11.38;4.53;;;;;;;0.22;59.95;100895.16;5095599;28;20067;-58
2023/05/07 00:55:21;;;;;;;8.32;4.15;;;;;;;0.18;60.53;100889.13;5095448;28;20051;-58
2023/05/07 00:57:47;;;;;;;10.57;4.45;;;;;;;0.19;60.63;100900.50;5095350;28;20059;-58
2023/05/07 01:00:12;;;;;;;6.63;4.40;;;;;;;0.11;60.22;100891.00;5095679;28;20430;-59
2023/05/07 01:02:39;;;;;;;6.28;3.95;;;;;;;0.14;60.32;100900.63;5095491;28;20121;-59
2023/05/07 01:05:07;;;;;;;7.97;4.25;;;;;;;0.13;60.59;100894.47;5095459;28;20032;-61
2023/05/07 01:07:34;;;;;;;6.43;4.38;;;;;;;0.12;60.53;100889.22;5095320;28;20055;-58
2023/05/07 01:10:00;;;;;;;7.72;4.68;;;;;;;0.09;60.52;100892.81;5095611;28;20373;-57
2023/05/07 01:12:27;;;;;;;10.48;4.32;;;;;;;0.08;60.90;100896.34;5077564;28;20466;-58
2023/05/07 01:14:53;;;;;;;6.78;4.22;;;;;;;-0.12;61.19;100862.50;5095028;28;20039;-59
2023/05/07 01:17:19;;;;;;;7.97;4.72;;;;;;;0.03;60.50;100903.47;5095807;28;20032;-55
2023/05/07 01:19:45;;;;;;;6.82;4.45;;;;;;;-0.12;61.29;100882.69;5095398;28;20366;-58
2023/05/07 01:22:11;;;;;;;7.45;4.72;;;;;;;0.00;61.51;100903.53;5095212;28;20050;-60
2023/05/07 01:24:38;;;;;;;7.65;4.60;;;;;;;-0.21;61.33;100878.47;5095470;28;20355;-59
2023/05/07 01:27:04;;;;;;;8.93;3.95;;;;;;;-0.01;61.45;100920.19;5095346;28;20032;-61
2023/05/07 01:29:29;;;;;;;5.13;4.22;;;;;;;-0.04;61.44;100920.25;5095129;28;20036;-58
2023/05/07 01:32:00;;;;;;;6.47;4.07;;;;;;;-0.02;61.38;100918.47;5094866;28;20043;-59
2023/05/07 01:34:28;;;;;;;10.48;4.40;;;;;;;-0.04;61.44;100917.63;5077002;28;20044;-59
2023/05/07 01:36:55;;;;;;;6.25;4.68;;;;;;;-0.17;61.40;100893.28;5077346;28;20039;-61
2023/05/07 01:39:24;;;;;;;8.85;4.70;;;;;;;-0.23;61.61;100882.88;5095190;28;20028;-58
2023/05/07 01:41:49;;;;;;;6.53;4.15;;;;;;;-0.12;61.19;100916.91;5094734;28;20063;-59
2023/05/07 01:44:18;;;;;;;7.18;4.63;;;;;;;-0.05;61.87;100921.16;5094476;28;20052;-59
2023/05/07 01:46:43;;;;;;;8.02;4.05;;;;;;;-0.14;61.28;100903.75;5095021;28;20055;-60
2023/05/07 01:49:09;;;;;;;8.40;4.43;;;;;;;-0.05;61.56;100926.41;5094700;28;20374;-57
2023/05/07 01:51:36;;;;;;;8.10;4.30;;;;;;;-0.03;61.92;100927.25;5094380;28;20039;-55
2023/05/07 01:54:01;;;;;;;13.20;4.60;;;;;;;-0.01;61.58;100933.34;5094499;28;20495;-60
2023/05/07 01:56:27;;;;;;;9.18;4.80;;;;;;;0.02;61.94;100933.31;5094291;28;20099;-60
2023/05/07 01:58:52;;;;;;;7.75;4.93;;;;;;;-0.10;61.04;100897.56;5076878;28;20064;-61
2023/05/07 02:01:18;;;;;;;8.70;4.88;;;;;;;0.10;61.10;100938.41;5076516;28;20059;-58
2023/05/07 02:03:44;;;;;;;7.68;5.13;;;;;;;0.12;60.84;100940.13;5094492;28;20465;-58
2023/05/07 02:06:09;;;;;;;12.10;6.30;;;;;;;-0.01;60.66;100912.28;5094007;28;20144;-59
2023/05/07 02:08:35;;;;;;;11.40;5.90;;;;;;;0.14;61.05;100938.34;5093303;28;20066;-57
2023/05/07 02:11:01;;;;;;;7.72;5.25;;;;;;;0.24;60.81;100943.41;5094057;28;20036;-58
2023/05/07 02:13:32;;;;;;;6.88;5.07;;;;;;;0.30;61.17;100952.97;5094199;28;20024;-59
2023/05/07 02:15:58;;;;;;;7.68;5.07;;;;;;;0.34;60.54;100950.25;5094124;28;20035;-60
2023/05/07 02:18:23;;;;;;;13.75;5.55;;;;;;;0.39;60.89;100950.16;5093934;28;20028;-60
2023/05/07 02:20:49;;;;;;;6.95;4.72;;;;;;;0.43;60.92;100951.84;5094368;28;20024;-61
2023/05/07 02:23:17;;;;;;;9.07;5.00;;;;;;;0.52;60.70;100956.06;5076399;28;20082;-56
2023/05/07 02:25:42;;;;;;;8.82;5.30;;;;;;;0.59;61.35;100955.03;5094036;28;20024;-59
2023/05/07 02:28:08;;;;;;;7.90;5.68;;;;;;;0.66;60.45;100958.41;5094137;28;20433;-57
2023/05/07 02:30:33;;;;;;;13.93;6.13;;;;;;;0.67;60.69;100950.44;5093764;28;20031;-59
2023/05/07 02:32:59;;;;;;;9.38;6.07;;;;;;;0.80;60.55;100963.38;5075782;28;20096;-58
2023/05/07 02:35:25;;;;;;;12.57;6.00;;;;;;;0.82;60.11;100957.16;5094045;28;20035;-57
2023/05/07 02:37:51;;;;;;;11.10;6.43;;;;;;;0.87;59.98;100964.13;5075970;28;20027;-60
2023/05/07 02:40:17;;;;;;;9.85;5.85;;;;;;;0.96;59.56;100970.03;5093714;28;20024;-63
2023/05/07 02:42:42;;;;;;;11.50;6.13;;;;;;;1.01;59.67;100964.66;5094011;28;20085;-59
2023/05/07 02:45:08;;;;;;;11.15;6.45;;;;;;;1.10;59.00;100977.66;5094078;28;20024;-58
2023/05/07 02:47:34;;;;;;;9.40;6.32;;;;;;;0.95;59.43;100939.28;5093165;28;20032;-59
2023/05/07 02:50:00;;;;;;;14.82;6.10;;;;;;;1.19;59.06;100976.56;5093382;28;20035;-61
2023/05/07 02:52:25;;;;;;;15.38;6.95;;;;;;;1.32;58.58;100977.13;5093892;28;20028;-62
2023/05/07 02:54:50;;;;;;;11.90;7.10;;;;;;;1.36;58.55;100978.81;5076117;28;20030;-59
2023/05/07 02:57:16;;;;;;;13.05;7.50;;;;;;;1.44;58.63;100986.53;5093453;28;20020;-59
2023/05/07 02:59:42;;;;;;;11.35;6.90;;;;;;;1.49;58.25;100987.31;5075477;28;20050;-61
2023/05/07 03:02:07;;;;;;;12.15;7.50;;;;;;;1.56;58.02;100990.66;5093550;28;20031;-60
2023/05/07 03:04:33;;;;;;;13.00;6.82;;;;;;;1.68;57.53;100992.13;5075613;28;20028;-59
2023/05/07 03:06:59;;;;;;;15.65;7.10;;;;;;;1.71;57.44;100986.78;5093140;28;20573;-60
2023/05/07 03:09:24;;;;;;;10.57;6.93;;;;;;;1.85;56.95;100992.56;5093154;28;20032;-59
2023/05/07 03:11:50;;;;;;;11.60;6.95;;;;;;;1.98;56.67;101000.19;5093278;28;20040;-59
2023/05/07 03:14:15;;;;;;;10.93;6.60;;;;;;;2.12;56.42;100994.53;5093799;28;20110;-60
2023/05/07 03:16:41;;;;;;;11.25;7.20;;;;;;;2.23;56.03;100996.91;5092841;28;20024;-60
2023/05/07 03:19:06;;;;;;;10.15;6.28;;;;;;;2.21;55.65;100983.72;5092724;28;20036;-60
2023/05/07 03:21:33;;;;;;;9.75;6.57;;;;;;;2.44;55.38;101011.28;5092908;28;20055;-59
2023/05/07 03:24:00;;;;;;;9.85;6.05;;;;;;;2.52;55.30;101003.16;5093325;28;20035;-61
2023/05/07 03:26:26;;;;;;;9.63;6.15;;;;;;;2.44;55.05;100979.56;5092685;28;20028;-61
2023/05/07 03:28:51;;;;;;;7.65;5.43;;;;;;;2.77;54.44;101011.22;5074820;28;20127;-58
2023/05/07 03:31:18;;;;;;;6.90;5.05;;;;;;;2.73;53.91;100997.25;5093203;28;20028;-60
2023/05/07 03:33:56;;;;;;;6.47;5.30;;;;;;;3.00;53.76;101005.28;5093189;28;20039;-59
2023/05/07 03:36:23;;;;;;;7.85;5.53;;;;;;;3.15;52.95;101011.03;5092749;28;20097;-59
2023/05/07 03:38:49;;;;;;;9.23;5.57;;;;;;;3.67;52.71;101015.59;5092729;28;20523;-60
2023/05/07 03:41:15;;;;;;;10.70;5.43;;;;;;;4.76;49.99;101017.13;5093249;28;20035;-62
2023/05/07 03:43:41;;;;;;;5.97;4.40;;;;;;;6.23;46.13;101013.09;5092825;28;20130;-61
2023/05/07 03:46:07;;;;;;;8.07;4.70;;;;;;;7.69;42.85;101006.38;5074377;28;20035;-60
2023/05/07 03:48:32;;;;;;;7.95;4.40;;;;;;;8.91;39.49;101004.56;5074509;28;20024;-61
2023/05/07 03:50:58;;;;;;;6.50;4.07;;;;;;;10.19;36.84;101014.25;5092464;28;20100;-61
2023/05/07 03:53:24;;;;;;;7.78;4.18;;;;;;;11.42;34.05;100996.81;5074635;28;20025;-60
2023/05/07 03:55:49;;;;;;;5.00;3.72;;;;;;;12.44;32.10;100999.88;5092957;28;20129;-60
2023/05/07 03:58:15;;;;;;;4.60;3.60;;;;;;;13.51;30.43;101002.22;5092382;28;20060;-61
2023/05/07 04:00:41;;;;;;;5.07;3.72;;;;;;;14.65;28.55;100999.81;5092554;28;20050;-58
2023/05/07 04:03:07;;;;;;;3.90;3.28;;;;;;;15.71;26.72;101007.56;5092286;28;20077;-60
2023/05/07 04:05:32;;;;;;;6.18;3.60;;;;;;;16.63;25.51;101003.38;5092172;28;20570;-61
2023/05/07 04:08:00;;;;;;;4.32;3.42;;;;;;;17.14;24.53;100984.56;5092640;28;20052;-60
2023/05/07 04:10:28;;;;;;;4.40;3.53;;;;;;;17.45;23.79;101004.25;5074501;28;20036;-61
2023/05/07 04:12:53;;;;;;;7.80;3.40;;;;;;;17.81;23.23;101006.44;5092280;28;20024;-61
2023/05/07 04:15:19;;;;;;;4.90;3.50;;;;;;;18.50;22.11;101014.53;5092647;28;20109;-60
2023/05/07 04:17:45;;;;;;;6.60;3.60;;;;;;;19.20;21.79;101015.97;5092128;28;20039;-61
2023/05/07 04:20:14;;;;;;;6.35;4.07;;;;;;;19.86;20.56;101016.69;5092323;28;20066;-61
2023/05/07 04:22:40;;;;;;;6.20;3.60;;;;;;;19.84;20.42;101026.84;5092653;28;20353;-61
2023/05/07 04:25:07;;;;;;;4.38;3.33;;;;;;;19.87;20.15;101026.53;5092306;28;20032;-60
2023/05/07 04:27:33;;;;;;;4.65;3.08;;;;;;;20.30;19.67;101015.03;5092244;28;20054;-61
2023/05/07 04:30:00;;;;;;;5.75;3.42;;;;;;;20.85;19.06;101021.19;5092598;28;20107;-60
2023/05/07 04:32:26;;;;;;;4.95;3.47;;;;;;;21.36;18.31;101027.50;5093810;28;20107;-63
2023/05/07 04:34:52;;;;;;;5.05;3.47;;;;;;;22.03;17.60;101019.47;5096309;28;20518;-65
2023/05/07 04:37:17;;;;;;;10.75;3.33;;;;;;;22.36;17.47;101019.44;5095887;28;20028;-65
2023/05/07 04:39:43;;;;;;;4.78;3.20;;;;;;;22.87;16.80;101021.06;5096494;28;20441;-60
2023/05/07 04:42:09;;;;;;;3.47;3.15;;;;;;;23.45;15.97;100998.97;5095988;28;20111;-60
2023/05/07 04:44:37;;;;;;;6.93;3.10;;;;;;;24.15;15.35;101024.47;5095498;28;20081;-61
2023/05/07 04:47:02;;;;;;;4.15;3.15;;;;;;;24.79;14.72;101030.53;5096106;28;20089;-60
2023/05/07 04:49:28;;;;;;;5.18;3.28;;;;;;;25.45;14.38;101026.09;5095996;28;20335;-62
2023/05/07 04:51:53;;;;;;;5.15;2.85;;;;;;;25.71;13.86;101021.97;5095810;28;20431;-60
2023/05/07 04:54:19;;;;;;;5.22;3.08;;;;;;;25.75;14.02;101028.78;5095419;28;20024;-62
2023/05/07 04:56:44;;;;;;;5.45;3.00;;;;;;;25.97;13.44;101026.03;5095882;28;20059;-61
2023/05/07 04:59:10;;;;;;;5.45;3.10;;;;;;;26.54;13.13;101026.13;5077911;28;20024;-61
2023/05/07 05:01:35;;;;;;;5.53;2.90;;;;;;;27.02;12.63;101028.09;5095561;28;20028;-61
2023/05/07 05:04:01;;;;;;;3.88;2.97;;;;;;;27.16;12.61;101023.53;5095344;28;20350;-61
2023/05/07 05:06:26;;;;;;;4.07;2.80;;;;;;;27.61;12.30;101029.41;5077336;28;20104;-61
2023/05/07 05:08:52;;;;;;;2.85;2.47;;;;;;;27.67;11.57;101019.50;5096123;28;20381;-61
2023/05/07 05:11:17;;;;;;;2.33;2.08;;;;;;;27.64;11.97;101022.66;5095306;28;20161;-61
2023/05/07 05:13:43;;;;;;;3.83;2.10;;;;;;;27.37;11.50;101026.13;5094865;28;20058;-60
2023/05/07 05:16:08;;;;;;;4.72;2.05;;;;;;;27.24;11.83;101020.56;5095331;28;20020;-61
2023/05/07 05:18:34;;;;;;;3.25;1.83;;;;;;;27.53;11.38;101034.25;5095547;28;20028;-61
2023/05/07 05:21:00;;;;;;;3.47;1.60;;;;;;;27.78;11.21;101026.28;5095234;28;20039;-61
2023/05/07 05:23:27;;;;;;;4.60;1.90;;;;;;;28.78;10.94;101028.16;5095240;28;20039;-61
2023/05/07 05:25:57;;;;;;;2.13;1.83;;;;;;;29.52;10.18;101027.06;5095401;28;20066;-61
2023/05/07 05:28:23;;;;;;;1.92;1.80;;;;;;;29.83;9.49;101030.06;5095585;28;20032;-62
2023/05/07 05:30:49;;;;;;;1.80;1.70;;;;;;;30.77;9.25;101023.78;5095134;28;20028;-61
2023/05/07 05:33:14;;;;;;;3.03;2.13;;;;;;;31.44;8.89;101038.72;5094905;28;20020;-61
2023/05/07 05:35:40;;;;;;;2.45;1.60;;;;;;;32.06;8.43;101029.28;5094818;28;20398;-61
2023/05/07 05:38:05;;;;;;;2.65;1.90;;;;;;;32.28;8.29;101042.56;5095340;28;20111;-60
2023/05/07 05:40:31;;;;;;;2.33;1.48;;;;;;;32.56;8.03;101039.09;5094913;28;20058;-62
2023/05/07 05:42:57;;;;;;;1.85;1.50;;;;;;;31.73;8.26;101038.94;5094757;28;20035;-61
2023/05/07 05:45:23;;;;;;;2.20;1.33;;;;;;;31.46;8.42;101042.09;5077160;28;20288;-61
2023/05/07 05:47:48;;;;;;;1.83;1.40;;;;;;;32.24;8.05;101041.34;5094766;28;20067;-61
2023/05/07 05:50:14;;;;;;;1.95;1.45;;;;;;;32.56;7.67;101039.09;5094814;28;20385;-61
2023/05/07 05:52:40;;;;;;;2.45;1.40;;;;;;;32.64;7.40;101043.44;5094517;28;20028;-61
2023/05/07 05:55:06;;;;;;;4.28;1.75;;;;;;;32.63;7.68;101048.13;5094648;28;20044;-60
2023/05/07 05:57:32;;;;;;;1.98;1.17;;;;;;;31.63;7.74;101053.34;5094543;28;20374;-62
2023/05/07 05:59:58;;;;;;;2.75;1.60;;;;;;;27.83;9.91;101044.91;5094846;28;20039;-61
2023/05/07 06:02:23;;;;;;;2.30;1.20;;;;;;;24.22;12.48;101054.66;5094570;28;20032;-61
2023/05/07 06:04:49;;;;;;;2.80;1.90;;;;;;;21.96;14.23;101056.63;5094279;28;20115;-61
2023/05/07 06:07:14;;;;;;;1.85;1.63;;;;;;;22.03;14.52;101060.38;5094047;28;20443;-61
2023/05/07 06:09:40;;;;;;;7.30;1.80;;;;;;;23.90;12.89;101060.19;5094408;28;20047;-61
2023/05/07 06:12:06;;;;;;;3.95;1.85;;;;;;;22.28;13.58;101028.47;5094298;28;20038;-62
2023/05/07 06:14:31;;;;;;;3.47;1.80;;;;;;;20.14;15.08;101057.38;5094160;28;20342;-61
2023/05/07 06:16:57;;;;;;;3.28;1.92;;;;;;;18.04;17.31;101057.66;5094814;28;20166;-62
2023/05/07 06:19:23;;;;;;;4.95;1.83;;;;;;;17.11;18.34;101063.28;5094190;28;20039;-60
2023/05/07 06:21:50;;;;;;;4.07;2.10;;;;;;;16.97;19.12;101064.47;5094089;28;20447;-61
2023/05/07 06:24:15;;;;;;;6.18;1.92;;;;;;;16.59;19.70;101067.69;5094069;28;20036;-61
2023/05/07 06:26:41;;;;;;;3.50;1.80;;;;;;;16.83;19.04;101062.97;5094103;28;20457;-61
2023/05/07 06:29:06;;;;;;;3.88;1.80;;;;;;;19.91;16.30;101041.56;5093983;28;20031;-62
2023/05/07 06:31:32;;;;;;;2.40;1.60;;;;;;;24.76;12.68;101041.88;5093894;28;20059;-61
2023/05/07 06:33:57;;;;;;;1.67;1.50;;;;;;;28.36;9.84;101057.88;5094252;28;20028;-62
2023/05/07 06:36:23;;;;;;;4.43;1.33;;;;;;;30.85;8.80;101053.00;5094078;28;20028;-62
2023/05/07 06:38:48;;;;;;;2.58;1.40;;;;;;;30.21;8.76;101048.50;5093711;28;20077;-62
2023/05/07 06:41:14;;;;;;;2.85;1.65;;;;;;;27.40;10.54;101065.28;5093544;28;20043;-61
2023/05/07 06:43:39;;;;;;;1.77;1.60;;;;;;;24.79;11.52;101058.75;5094044;28;20107;-61
2023/05/07 06:46:05;;;;;;;2.00;1.67;;;;;;;22.36;13.03;101060.38;5093807;28;20116;-61
2023/05/07 06:48:30;;;;;;;3.92;1.60;;;;;;;20.69;14.19;101055.41;5093547;28;20334;-62
2023/05/07 06:50:57;;;;;;;1.67;1.40;;;;;;;19.53;15.19;101065.22;5093588;28;20054;-62
2023/05/07 06:53:23;;;;;;;2.08;1.65;;;;;;;18.91;15.88;101060.38;5093752;28;20093;-62
2023/05/07 06:55:49;;;;;;;3.60;1.80;;;;;;;21.39;13.58;101060.88;5093034;28;20038;-61
2023/05/07 06:58:15;;;;;;;1.40;1.30;;;;;;;23.01;12.43;101041.31;5093455;28;20024;-61
2023/05/07 07:00:40;;;;;;;2.10;1.10;;;;;;;21.57;12.93;101056.19;5093046;28;20028;-60
2023/05/07 07:03:06;;;;;;;4.75;1.65;;;;;;;19.69;14.33;101063.72;5093493;28;20081;-63
2023/05/07 07:05:32;;;;;;;1.63;1.30;;;;;;;18.90;15.38;101058.66;5093297;28;20206;-61
2023/05/07 07:07:57;;;;;;;3.92;1.67;;;;;;;18.75;15.75;101056.41;5075577;28;20135;-62
2023/05/07 07:10:23;;;;;;;4.60;1.40;;;;;;;18.04;15.96;101061.22;5075200;28;20043;-61
2023/05/07 07:12:49;;;;;;;2.40;1.63;;;;;;;16.84;17.31;101061.97;5075781;28;20370;-61
2023/05/07 07:15:15;;;;;;;4.75;1.20;;;;;;;15.74;17.79;101051.34;5075380;28;20461;-60
2023/05/07 07:17:41;;;;;;;1.30;1.20;;;;;;;16.39;17.53;101047.78;5092982;28;20116;-61
2023/05/07 07:20:07;;;;;;;3.40;1.17;;;;;;;17.73;16.10;101049.63;5092964;28;20097;-60
2023/05/07 07:22:33;;;;;;;1.85;1.20;;;;;;;20.75;13.85;101022.13;5093345;28;20168;-60
2023/05/07 07:24:58;;;;;;;3.65;1.40;;;;;;;25.86;10.11;101033.75;5093395;28;20429;-62
2023/05/07 07:27:24;;;;;;;2.63;1.40;;;;;;;26.91;9.11;101051.50;5092901;28;20034;-64
2023/05/07 07:29:49;;;;;;;2.55;1.70;;;;;;;25.63;9.66;101048.50;5075307;28;20032;-66
2023/05/07 07:32:15;;;;;;;2.80;1.70;;;;;;;26.76;8.94;101046.94;5093262;28;20036;-65
2023/05/07 07:34:41;;;;;;;3.20;1.42;;;;;;;28.91;7.57;101045.75;5093085;28;20056;-63
2023/05/07 07:37:06;;;;;;;3.92;1.52;;;;;;;29.92;7.44;101046.16;5092876;28;20025;-66
2023/05/07 07:39:33;;;;;;;2.22;1.38;;;;;;;31.63;7.04;101036.72;5093060;28;20162;-65
2023/05/07 07:41:59;;;;;;;4.20;1.17;;;;;;;29.79;6.90;101049.84;5092841;28;20028;-64
2023/05/07 07:44:25;;;;;;;1.67;0.88;;;;;;;26.69;8.65;101051.56;5092826;28;20107;-64
2023/05/07 07:46:50;;;;;;;2.70;0.90;;;;;;;24.17;9.62;101049.75;5092675;28;20058;-61
2023/05/07 07:49:16;;;;;;;1.55;0.88;;;;;;;25.10;9.52;101042.34;5092450;28;20438;-61
2023/05/07 07:51:41;;;;;;;1.70;1.02;;;;;;;26.49;8.62;101038.53;5092926;28;20024;-61
2023/05/07 07:54:07;;;;;;;4.32;1.00;;;;;;;27.80;8.08;101041.50;5092452;28;20034;-62
2023/05/07 07:56:33;;;;;;;1.23;0.90;;;;;;;26.08;8.69;101041.97;5092780;28;20032;-61
2023/05/07 07:58:59;;;;;;;4.57;0.98;;;;;;;23.93;9.95;101042.56;5075608;28;20119;-62
2023/05/07 08:01:25;;;;;;;3.75;1.30;;;;;;;23.98;10.41;101028.34;5074914;28;20111;-61
2023/05/07 08:03:51;;;;;;;4.10;0.90;;;;;;;24.46;9.46;101033.56;5092597;28;20060;-61
2023/05/07 08:06:17;;;;;;;2.28;0.85;;;;;;;24.76;9.22;101039.97;5092851;28;20437;-62
2023/05/07 08:08:42;;;;;;;2.75;1.00;;;;;;;22.88;10.46;101028.22;5095917;28;20036;-60
2023/05/07 08:11:08;;;;;;;6.32;1.70;;;;;;;20.70;11.84;101040.78;5096664;28;20036;-62
2023/05/07 08:13:34;;;;;;;2.10;1.05;;;;;;;19.43;13.10;101061.72;5097165;28;20031;-61
2023/05/07 08:16:00;;;;;;;3.15;1.30;;;;;;;18.50;14.11;101042.47;5096502;28;20059;-61
2023/05/07 08:18:28;;;;;;;3.28;1.25;;;;;;;17.67;14.82;101044.78;5096532;28;21683;-62
2023/05/07 08:20:53;;;;;;;2.35;1.23;;;;;;;16.83;15.26;101035.94;5096556;28;20035;-61
2023/05/07 08:23:19;;;;;;;3.33;1.33;;;;;;;15.83;16.21;101041.63;5096781;28;20021;-61
2023/05/07 08:25:45;;;;;;;1.73;1.15;;;;;;;14.86;16.80;101040.44;5096407;28;20054;-60
2023/05/07 08:28:10;;;;;;;1.83;1.20;;;;;;;13.97;17.65;101040.06;5096694;28;20028;-61
2023/05/07 08:30:36;;;;;;;8.00;1.40;;;;;;;13.45;18.50;101016.09;5079093;28;20035;-60
2023/05/07 08:33:01;;;;;;;3.15;1.30;;;;;;;13.61;18.46;101057.03;5096242;28;20363;-61
2023/05/07 08:35:27;;;;;;;4.20;1.25;;;;;;;13.30;18.20;101050.31;5096061;28;20376;-61
2023/05/07 08:37:53;;;;;;;3.55;1.10;;;;;;;13.27;18.13;101047.84;5096268;28;20051;-61
2023/05/07 08:40:22;;;;;;;3.15;1.50;;;;;;;13.39;18.50;101044.28;5096094;28;20032;-60
2023/05/07 08:42:49;;;;;;;1.92;1.08;;;;;;;13.66;18.02;101039.69;5096023;28;20439;-60
2023/05/07 08:45:17;;;;;;;2.85;1.17;;;;;;;13.98;17.94;101037.28;5095974;28;20092;-62
2023/05/07 08:47:45;;;;;;;6.80;1.70;;;;;;;14.00;17.67;101032.63;5078029;28;20089;-61
2023/05/07 08:50:11;;;;;;;5.10;1.52;;;;;;;13.81;18.09;101033.16;5095918;28;20446;-60
2023/05/07 08:52:37;;;;;;;1.85;1.50;;;;;;;13.14;18.32;101035.31;5095917;28;20032;-61
2023/05/07 08:55:03;;;;;;;3.92;1.60;;;;;;;12.61;19.07;101039.00;5095686;28;20035;-62
2023/05/07 08:57:30;;;;;;;3.15;1.48;;;;;;;12.56;19.32;101034.94;5078249;28;20096;-60
2023/05/07 08:59:55;;;;;;;3.40;1.30;;;;;;;12.46;19.07;101034.72;5095946;28;20115;-61
2023/05/07 09:02:21;;;;;;;6.13;1.30;;;;;;;12.17;19.20;101035.75;5095560;28;20039;-60
2023/05/07 09:04:46;;;;;;;5.55;1.60;;;;;;;12.05;19.91;101037.44;5095545;28;20028;-60
2023/05/07 09:07:12;;;;;;;5.47;1.30;;;;;;;12.31;19.36;101040.16;5095546;28;20048;-61
2023/05/07 09:09:37;;;;;;;2.90;1.38;;;;;;;12.63;19.06;101041.59;5095907;28;20450;-62
2023/05/07 09:12:03;;;;;;;3.20;1.23;;;;;;;12.86;18.91;101036.44;5095305;28;20119;-62
2023/05/07 09:14:30;;;;;;;6.82;1.48;;;;;;;12.84;19.08;101041.06;5095224;28;20595;-61
2023/05/07 09:16:56;;;;;;;5.50;1.30;;;;;;;12.49;19.13;101019.22;5095454;28;20056;-60
2023/05/07 09:19:26;;;;;;;4.85;1.50;;;;;;;12.30;19.27;101051.88;5094991;28;20024;-60
2023/05/07 09:22:07;;;;;;;2.65;1.38;;;;;;;12.10;19.45;101044.31;5095378;28;20039;-61
2023/05/07 09:24:37;;;;;;;2.88;1.65;;;;;;;11.85;20.03;101041.44;5095142;28;20024;-60
2023/05/07 09:27:04;;;;;;;5.88;1.83;;;;;;;12.02;19.89;101048.38;5095264;28;20040;-60
2023/05/07 09:29:35;;;;;;;3.67;1.23;;;;;;;12.23;19.52;101038.97;5095209;28;20024;-59
2023/05/07 09:32:05;;;;;;;5.07;1.40;;;;;;;12.40;19.64;101056.59;5095140;28;20145;-61
2023/05/07 09:34:31;;;;;;;3.55;1.20;;;;;;;12.60;19.13;101044.50;5094740;28;20432;-62
2023/05/07 09:37:00;;;;;;;1.65;1.10;;;;;;;12.85;19.01;101040.09;5094978;28;20107;-62
2023/05/07 09:39:25;;;;;;;1.17;1.00;;;;;;;12.90;18.62;100993.09;5094840;28;20036;-63
2023/05/07 09:41:54;;;;;;;1.92;1.30;;;;;;;13.20;18.32;101026.81;5076992;28;20043;-60
2023/05/07 09:44:20;;;;;;;1.20;1.10;;;;;;;13.24;18.42;101029.25;5094645;28;20391;-64
2023/05/07 09:46:51;;;;;;;2.20;1.10;;;;;;;12.90;19.25;101029.84;5094855;28;20043;-60
2023/05/07 09:49:22;;;;;;;8.27;1.50;;;;;;;12.90;19.34;101033.41;5077621;28;20063;-61
2023/05/07 09:51:50;;;;;;;1.55;1.25;;;;;;;12.69;19.31;101029.56;5094679;28;20285;-61
2023/05/07 09:54:16;;;;;;;2.17;1.45;;;;;;;12.29;19.29;101030.47;5094677;28;20119;-62
2023/05/07 09:56:47;;;;;;;6.78;1.33;;;;;;;11.87;19.66;101028.78;5094469;28;20028;-63
2023/05/07 09:59:15;;;;;;;5.32;1.33;;;;;;;11.58;20.24;101031.56;5094551;28;20070;-63
2023/05/07 10:01:44;;;;;;;1.42;1.27;;;;;;;11.70;20.07;101024.53;5094821;28;20036;-60
2023/05/07 10:04:11;;;;;;;3.38;1.17;;;;;;;11.94;19.38;101023.84;5094679;28;20027;-62
2023/05/07 10:06:38;;;;;;;1.48;1.30;;;;;;;12.18;19.46;101024.03;5093962;28;20147;-62
2023/05/07 10:09:07;;;;;;;3.88;1.30;;;;;;;12.40;19.49;101024.38;5094370;28;20190;-60
2023/05/07 10:11:34;;;;;;;2.58;1.70;;;;;;;12.54;19.61;101031.47;5076836;28;20119;-61
2023/05/07 10:14:02;;;;;;;4.00;1.50;;;;;;;12.46;19.57;101019.44;5094211;28;20119;-59
2023/05/07 10:16:36;;;;;;;2.60;1.23;;;;;;;12.73;19.39;101020.31;5094408;28;20342;-62
2023/05/07 10:19:09;;;;;;;1.80;1.20;;;;;;;12.87;19.31;101022.03;5094125;28;20028;-61
2023/05/07 10:21:42;;;;;;;3.95;1.35;;;;;;;13.13;18.95;101027.34;5093843;28;20089;-61
2023/05/07 10:24:21;;;;;;;2.20;1.40;;;;;;;13.11;18.77;101019.38;5094319;28;20115;-60
2023/05/07 10:26:50;;;;;;;3.25;1.40;;;;;;;13.12;18.49;101014.88;5094245;28;20067;-62
2023/05/07 10:29:24;;;;;;;2.97;1.45;;;;;;;13.16;18.32;101013.69;5093527;28;20032;-62
2023/05/07 10:32:12;;;;;;;1.33;1.20;;;;;;;13.29;18.36;101011.81;5093321;28;20035;-62
2023/05/07 10:34:42;;;;;;;5.80;1.55;;;;;;;13.45;18.52;101008.88;5094254;28;20024;-61
2023/05/07 10:37:10;;;;;;;2.45;1.30;;;;;;;13.61;17.87;101016.69;5093897;28;20342;-62
2023/05/07 10:39:36;;;;;;;2.10;1.15;;;;;;;13.73;17.88;101005.94;5093735;28;20035;-61
2023/05/07 10:42:11;;;;;;;2.53;1.30;;;;;;;14.01;17.59;101009.28;5093737;28;20039;-61
2023/05/07 10:44:37;;;;;;;6.53;1.33;;;;;;;14.02;17.75;101005.59;5093932;28;20035;-61
2023/05/07 10:47:09;;;;;;;2.33;1.10;;;;;;;13.98;17.97;101029.19;5093597;28;20373;-60
2023/05/07 10:49:43;;;;;;;3.55;1.10;;;;;;;14.01;17.70;101022.72;5093439;28;20546;-61
2023/05/07 10:52:20;;;;;;;5.70;1.55;;;;;;;13.61;18.15;101021.19;5093690;28;20046;-61
2023/05/07 10:54:46;;;;;;;4.32;1.38;;;;;;;13.09;18.56;101025.84;5093698;28;20027;-61
2023/05/07 10:57:30;;;;;;;2.22;1.35;;;;;;;12.90;19.02;101022.66;5093852;28;20115;-61
2023/05/07 10:59:56;;;;;;;4.63;1.40;;;;;;;12.74;19.03;101030.94;5093020;28;20032;-61
2023/05/07 11:02:21;;;;;;;1.63;1.23;;;;;;;12.99;19.11;101023.81;5075951;28;20469;-60
2023/05/07 11:05:19;;;;;;;3.65;1.40;;;;;;;13.43;18.84;101026.09;5093620;28;20028;-61
2023/05/07 11:08:03;;;;;;;2.80;1.30;;;;;;;13.91;18.68;101009.94;5093242;28;20063;-60
2023/05/07 11:10:49;;;;;;;4.07;1.55;;;;;;;14.33;18.07;101025.63;5093185;28;20097;-62
2023/05/07 11:13:16;;;;;;;3.10;1.58;;;;;;;14.19;17.70;101020.47;5093917;28;20342;-61
2023/05/07 11:15:46;;;;;;;4.95;1.42;;;;;;;13.90;18.22;101023.53;5093651;28;20036;-60
2023/05/07 11:18:16;;;;;;;3.42;1.80;;;;;;;13.29;18.86;101021.72;5093385;28;20081;-61
2023/05/07 11:20:53;;;;;;;3.40;1.30;;;;;;;12.70;19.14;100999.88;5093260;28;20069;-62
2023/05/07 11:23:34;;;;;;;8.15;1.58;;;;;;;12.65;19.65;101034.28;5093281;28;20124;-61
2023/05/07 11:26:05;;;;;;;10.52;2.08;;;;;;;12.43;19.55;101037.63;5092873;28;20024;-61